Rock Hill, New York
Current Conditions -  °F | °C
As of 11:15 PM on Wednesday 28 Jan 2015 (Local Time) from KMSV Reporting Station
Clear Clear  
Wind Chill:   Ceiling: Unl
Heat Index: 12°   Visibility: 10mi
Dew Point:   Wind: 7mph
Humidity: 57%   Direction: 250°WSW
Pressure: 30.22"   Gusts: NA
Location:  41.63°N, 74.6°W
Report Text: KMSV 290415Z AUTO 25006KT 10SM CLR M11/M18 A3022 RMK AO1
Loading
Personal Weather Stations






























Interactive Weather Map New forecast layout! Learn more

10-Day Weather Forecast

Advertisements
Track Severe Weather on mobile